Pagrindinis puslapis
METAR-TAF:

METAR-TAF

Oro uostai :

Irkutskas, Rusija

platuma: 52-16N, ilguma: 104-19E, Aukštis: 513 m

Dabartinis oras

Ataskaita buvo paskelbta 21 minutes, ne 17:30 UTC
Vėjas 6 kt iš Šiaurės Vakarų
Temperatūra -1°C
Drėgmė 93%
Slėgis 1017 hPa
Matomumas 10 km arba daugiau
Išsisklaidę debesys ne aukštis 5000 ft, Liūtiniai kamuoliniai debesys.
sniegas

METAR: UIII 201730Z 31003MPS 9999 -SHSN SCT050CB M01/M02 Q1017 R30/290150 NOSIG RMK QFE718/0958

Laikas: 01:51 (17:51 UTC)

Prognozė

Ataskaita buvo paskelbta 51 minutes, ne 17:00 UTC
Prognozė galioja nuo 20 metu 18 UTC su 21 metu 18 UTC
Vėjas 6 kt iš Šiaurės Vakarų
Matomumas: 3100 m
Su prošvaistėmis ne aukštis 400 ft
Su prošvaistėmis ne aukštis 700 ft, Liūtiniai kamuoliniai debesys.
sniegas, dūmai
Laikinai
nuo 20 metu 18 UTC su 21 metu 12 UTC
Matomumas: 0900 m
ne aukštis 300 ft
sniegas

TAF: UIII 201700Z 2018/2118 32003MPS 3100 -SHSN FU BKN004 BKN007CB TEMPO 2018/2112 0900 +SHSN VV003

Orai ataskaitas ir orų prognozės (METAR, TAF).

turimą stotys yra geltonos ir raudonos taškus žemėlapyje.

Perkelti pele per norėdami pamatyti stoties vardą.

Tada spustelėkite, norėdami matyti oro stebėjimo ir prognozės.

Norėdami pakeisti žemėlapį: spustelėkite ant žalios mygtukų su juodo kryžiaus žemyn,; žalią mygtuką su brūkšneliu, jei norite nutolinti; arba žalių rodyklių gretimoms žemėlapius.


METAR-TAF: